Du har inga inställningar för hoppväder.nu

Hoppväder.nu

Senast uppdaterat 00:10

UTC-tid

2019-06-25 kl. 22:10


Sol och måne

Solen går upp 2:56 och går ner 23:50 (beräknade cirkatider)
Nästa fullmåne blir om 20 dagar (2019-07-16)

METAR

ESNN (Sundsvall)
(20 minuter sedan)
ESNN 252150Z AUTO 18002KT 9999 -RA FEW010/// BKN062/// BKN080/// 13/13 Q1022=



ESNK (Kramfors)
(20 minuter sedan)
ESNK 252150Z AUTO 18004KT 9999 FEW043/// OVC088/// 14/12 Q1022 REDZ=



ESNO (Örnsköldsvik)
(20 minuter sedan)
ESNO 252150Z AUTO 22004KT 9999 BKN068/// OVC160/// 13/09 Q1021=



ESNY (Söderhamn)
ESNY NIL=



ESNZ (Östersund)
(20 minuter sedan)
ESNZ 252150Z AUTO 22007KT 9999 SCT045/// BKN057/// OVC066/// 12/10 Q1021=



TAF

ESNN (Sundsvall)
(280 minuter sedan)
ESNN 251730Z 2518/2521 22006KT 9999 -RA BKN060=



ESNK (Kramfors)
(460 minuter sedan)
ESNK 251430Z 2515/2519 18010KT CAVOK=



ESNO (Örnsköldsvik)
(280 minuter sedan)
ESNO 251730Z 2518/2522 19004KT CAVOK=



ESNY (Söderhamn)
ESNY



ESNZ (Östersund)
(280 minuter sedan)
ESNZ 251730Z 2518/2522 20007KT CAVOK=





Kodnycklar till TAF och METAR






LHP

(Sundsvall är område D1a i Sydöstra delen)

Prognos är inte uppdaterad




Spotting

Hur fungerar spotthjälpen och Vindkartan?

Markvind är ca 0 m/s.



Vindkartan

Senast uppdaterad 00:10




All data kommer från LFV.se